createdAt,value
2022-09-03T00:02:35.056Z,15.40
2022-09-03T00:05:10.709Z,15.39
2022-09-03T00:08:13.976Z,15.40
2022-09-03T00:11:16.556Z,15.39
2022-09-03T00:13:55.931Z,15.41
2022-09-03T00:16:30.825Z,15.43
2022-09-03T00:19:04.322Z,15.44
2022-09-03T00:21:40.383Z,15.44
2022-09-03T00:24:15.120Z,15.45
2022-09-03T00:26:47.686Z,15.45
2022-09-03T00:29:20.291Z,15.44
2022-09-03T00:31:57.167Z,15.43
2022-09-03T00:34:29.616Z,15.39
2022-09-03T00:36:58.265Z,15.37
2022-09-03T00:39:28.353Z,15.35
2022-09-03T00:41:59.872Z,15.33
2022-09-03T00:44:30.912Z,15.31
2022-09-03T00:47:13.934Z,15.27
2022-09-03T00:50:04.739Z,15.21
2022-09-03T00:52:46.635Z,15.17
2022-09-03T00:55:47.581Z,15.15
2022-09-03T00:58:18.535Z,15.10
2022-09-03T01:00:46.997Z,15.06
2022-09-03T01:03:40.216Z,15.04
2022-09-03T01:06:21.745Z,15.00
2022-09-03T01:09:12.243Z,14.98
2022-09-03T01:12:06.323Z,14.93
2022-09-03T01:15:21.300Z,14.86
2022-09-03T01:18:34.217Z,14.78
2022-09-03T01:21:27.273Z,14.73
2022-09-03T01:24:13.778Z,14.70
2022-09-03T01:27:15.541Z,14.66
2022-09-03T01:29:46.682Z,14.62
2022-09-03T01:32:36.667Z,14.60
2022-09-03T01:35:25.939Z,14.59
2022-09-03T01:38:31.692Z,14.56
2022-09-03T01:41:33.862Z,14.52
2022-09-03T01:44:39.649Z,14.47
2022-09-03T01:47:41.787Z,14.45
2022-09-03T01:50:09.858Z,14.41
2022-09-03T01:52:59.981Z,14.39
2022-09-03T01:55:44.225Z,14.37
2022-09-03T01:58:21.401Z,14.36
2022-09-03T02:01:02.355Z,14.35
2022-09-03T02:03:41.065Z,14.34
2022-09-03T02:06:11.711Z,14.33
2022-09-03T02:08:40.419Z,14.30
2022-09-03T02:11:10.584Z,14.25
2022-09-03T02:13:44.423Z,14.21
2022-09-03T02:16:20.670Z,14.15
2022-09-03T02:18:55.130Z,14.12
2022-09-03T02:21:25.461Z,14.08
2022-09-03T02:23:54.044Z,14.07
2022-09-03T02:26:25.207Z,14.05
2022-09-03T02:28:54.995Z,14.06
2022-09-03T02:31:23.382Z,14.05
2022-09-03T02:33:52.259Z,14.04
2022-09-03T02:36:27.677Z,14.03
2022-09-03T02:38:55.959Z,14.03
2022-09-03T02:41:27.617Z,13.99
2022-09-03T02:44:03.776Z,13.95
2022-09-03T02:46:59.394Z,13.94
2022-09-03T02:49:28.813Z,13.93
2022-09-03T02:52:06.082Z,13.92
2022-09-03T02:54:36.817Z,13.89
2022-09-03T02:57:04.994Z,13.85
2022-09-03T02:59:33.369Z,13.83
2022-09-03T03:02:02.134Z,13.79
2022-09-03T03:04:31.362Z,13.74
2022-09-03T03:06:59.678Z,13.69
2022-09-03T03:09:28.141Z,13.65
2022-09-03T03:11:56.500Z,13.57
2022-09-03T03:14:24.870Z,13.49
2022-09-03T03:16:52.950Z,13.49
2022-09-03T03:19:21.217Z,13.47
2022-09-03T03:21:49.392Z,13.46
2022-09-03T03:24:17.565Z,13.42
2022-09-03T03:26:46.251Z,13.38
2022-09-03T03:29:20.979Z,13.34
2022-09-03T03:31:49.016Z,13.27
2022-09-03T03:34:17.297Z,13.22
2022-09-03T03:36:45.356Z,13.18
2022-09-03T03:39:13.879Z,13.15
2022-09-03T03:41:42.057Z,13.11
2022-09-03T03:44:10.099Z,13.11
2022-09-03T03:46:40.755Z,13.09
2022-09-03T03:49:11.388Z,13.10
2022-09-03T03:51:40.995Z,13.09
2022-09-03T03:54:09.232Z,13.10
2022-09-03T03:56:37.444Z,13.07
2022-09-03T03:59:05.618Z,13.00
2022-09-03T04:01:33.957Z,12.93
2022-09-03T04:04:02.723Z,12.89
2022-09-03T04:06:30.960Z,12.87
2022-09-03T04:08:59.133Z,12.83
2022-09-03T04:11:27.250Z,12.84
2022-09-03T04:13:55.481Z,12.83
2022-09-03T04:16:26.470Z,12.86
2022-09-03T04:18:56.336Z,12.88
2022-09-03T04:21:27.877Z,12.90
2022-09-03T04:23:58.315Z,12.90
2022-09-03T04:26:31.879Z,12.89
2022-09-03T04:29:03.559Z,12.89
2022-09-03T04:31:32.430Z,12.87
2022-09-03T04:34:00.840Z,12.86
2022-09-03T04:36:31.268Z,12.89
2022-09-03T04:39:01.922Z,12.92
2022-09-03T04:41:31.829Z,12.94
2022-09-03T04:44:00.577Z,12.98
2022-09-03T04:46:35.635Z,13.00
2022-09-03T04:49:04.115Z,13.02
2022-09-03T04:51:33.463Z,13.04
2022-09-03T04:54:02.572Z,13.07
2022-09-03T04:56:34.169Z,13.12
2022-09-03T04:59:08.313Z,13.15
2022-09-03T05:01:38.896Z,13.19
2022-09-03T05:04:08.426Z,13.23
2022-09-03T05:06:37.819Z,13.28
2022-09-03T05:09:07.024Z,13.30
2022-09-03T05:11:35.345Z,13.35
2022-09-03T05:14:06.011Z,13.38
2022-09-03T05:16:34.295Z,13.42
2022-09-03T05:19:03.921Z,13.44
2022-09-03T05:21:32.621Z,13.46
2022-09-03T05:24:02.101Z,13.48
2022-09-03T05:26:32.732Z,13.51
2022-09-03T05:29:02.956Z,13.53
2022-09-03T05:31:32.304Z,13.56
2022-09-03T05:34:03.708Z,13.59
2022-09-03T05:36:35.873Z,13.62
2022-09-03T05:39:06.198Z,13.63
2022-09-03T05:41:34.988Z,13.66
2022-09-03T05:44:04.314Z,13.68
2022-09-03T05:46:37.683Z,13.72
2022-09-03T05:49:07.643Z,13.75
2022-09-03T05:51:37.328Z,13.76
2022-09-03T05:54:06.129Z,13.77
2022-09-03T05:56:36.034Z,13.80
2022-09-03T05:59:09.508Z,13.83
2022-09-03T06:01:40.913Z,13.87
2022-09-03T06:04:15.584Z,13.89
2022-09-03T06:06:45.601Z,13.92
2022-09-03T06:09:18.389Z,13.97
2022-09-03T06:11:47.829Z,14.00
2022-09-03T06:14:18.527Z,14.04
2022-09-03T06:16:53.253Z,14.07
2022-09-03T06:19:21.632Z,14.13
2022-09-03T06:21:49.803Z,14.17
2022-09-03T06:24:26.278Z,14.23
2022-09-03T06:26:57.774Z,14.28
2022-09-03T06:29:26.406Z,14.33
2022-09-03T06:31:55.325Z,14.38
2022-09-03T06:34:27.053Z,14.41
2022-09-03T06:36:55.228Z,14.51
2022-09-03T06:39:27.384Z,14.58
2022-09-03T06:41:55.672Z,14.63
2022-09-03T06:44:28.452Z,14.71
2022-09-03T06:46:56.835Z,14.77
2022-09-03T06:49:26.647Z,14.84
2022-09-03T06:51:54.922Z,14.88
2022-09-03T06:54:25.407Z,14.94
2022-09-03T06:56:53.623Z,14.96
2022-09-03T06:59:21.899Z,14.98
2022-09-03T07:01:50.179Z,15.00
2022-09-03T07:04:19.225Z,15.04
2022-09-03T07:06:48.500Z,15.04
2022-09-03T07:09:18.596Z,15.07
2022-09-03T07:11:48.642Z,15.13
2022-09-03T07:14:21.256Z,15.16
2022-09-03T07:16:50.520Z,15.20
2022-09-03T07:19:18.954Z,15.26
2022-09-03T07:21:50.216Z,15.30
2022-09-03T07:24:22.720Z,15.33
2022-09-03T07:26:51.065Z,15.37
2022-09-03T07:29:21.081Z,15.37
2022-09-03T07:31:53.703Z,15.42
2022-09-03T07:34:25.566Z,15.50
2022-09-03T07:36:55.429Z,15.60
2022-09-03T07:39:23.819Z,15.67
2022-09-03T07:41:52.298Z,15.71
2022-09-03T07:44:20.925Z,15.75
2022-09-03T07:46:51.839Z,15.81
2022-09-03T07:49:22.230Z,15.86
2022-09-03T07:51:53.282Z,15.90
2022-09-03T07:54:22.481Z,15.93
2022-09-03T07:56:50.754Z,15.96
2022-09-03T07:59:19.647Z,15.99
2022-09-03T08:01:47.820Z,16.03
2022-09-03T08:04:16.050Z,16.08
2022-09-03T08:06:44.270Z,16.12
2022-09-03T08:09:14.184Z,16.16
2022-09-03T08:11:43.866Z,16.21
2022-09-03T08:14:14.425Z,16.25
2022-09-03T08:16:50.277Z,16.28
2022-09-03T08:19:19.477Z,16.33
2022-09-03T08:21:47.649Z,16.37
2022-09-03T08:24:17.973Z,16.43
2022-09-03T08:26:51.387Z,16.47
2022-09-03T08:29:21.615Z,16.50
2022-09-03T08:31:50.251Z,16.51
2022-09-03T08:34:19.171Z,16.51
2022-09-03T08:36:47.719Z,16.52
2022-09-03T08:39:16.508Z,16.53
2022-09-03T08:41:53.826Z,16.53
2022-09-03T08:44:36.952Z,16.52
2022-09-03T08:48:00.729Z,16.53
2022-09-03T08:50:35.661Z,16.56
2022-09-03T08:53:13.870Z,16.56
2022-09-03T08:55:51.772Z,16.57
2022-09-03T08:58:22.532Z,16.57
2022-09-03T09:01:01.739Z,16.57
2022-09-03T09:03:56.333Z,16.58
2022-09-03T09:06:36.795Z,16.58
2022-09-03T09:09:23.196Z,16.59
2022-09-03T09:12:10.009Z,16.62
2022-09-03T09:14:55.535Z,16.64
2022-09-03T09:17:36.050Z,16.63
2022-09-03T09:20:25.113Z,16.64
2022-09-03T09:23:07.529Z,16.68
2022-09-03T09:25:49.314Z,16.73
2022-09-03T09:28:21.735Z,16.78
2022-09-03T09:30:54.621Z,16.81
2022-09-03T09:33:25.514Z,16.82
2022-09-03T09:35:54.194Z,16.80
2022-09-03T09:38:31.531Z,16.82
2022-09-03T09:41:15.671Z,16.82
2022-09-03T09:43:45.631Z,16.80
2022-09-03T09:46:26.062Z,16.76
2022-09-03T09:48:57.970Z,16.71
2022-09-03T09:51:31.530Z,16.69
2022-09-03T09:54:14.597Z,16.72
2022-09-03T09:56:44.824Z,16.77
2022-09-03T09:59:15.549Z,16.82
2022-09-03T10:01:45.576Z,16.87
2022-09-03T10:04:23.799Z,16.89
2022-09-03T10:06:59.527Z,16.89
2022-09-03T10:09:31.364Z,16.92
2022-09-03T10:12:37.069Z,16.96
2022-09-03T10:15:31.595Z,17.04
2022-09-03T10:18:07.179Z,17.10
2022-09-03T10:21:17.776Z,17.15
2022-09-03T10:24:01.645Z,17.21
2022-09-03T10:26:33.346Z,17.27
2022-09-03T10:29:06.129Z,17.32
2022-09-03T10:31:34.741Z,17.38
2022-09-03T10:34:24.800Z,17.42
2022-09-03T10:37:18.611Z,17.44
2022-09-03T10:40:01.944Z,17.46
2022-09-03T10:42:40.443Z,17.52
2022-09-03T10:45:33.442Z,17.59
2022-09-03T10:48:12.328Z,17.66
2022-09-03T10:51:34.335Z,17.72
2022-09-03T10:54:32.410Z,17.77
2022-09-03T10:57:32.430Z,17.82
2022-09-03T11:00:11.077Z,17.89
2022-09-03T11:03:01.121Z,17.96
2022-09-03T11:05:38.732Z,18.07
2022-09-03T11:08:22.739Z,18.18
2022-09-03T11:11:12.558Z,18.24
2022-09-03T11:14:00.393Z,18.27
2022-09-03T11:16:59.390Z,18.28
2022-09-03T11:19:38.321Z,18.27
2022-09-03T11:22:08.847Z,18.26
2022-09-03T11:24:40.725Z,18.26
2022-09-03T11:27:33.148Z,18.26
2022-09-03T11:30:08.519Z,18.24
2022-09-03T11:32:55.722Z,18.25
2022-09-03T11:35:29.005Z,18.28
2022-09-03T11:38:06.086Z,18.33
2022-09-03T11:40:57.812Z,18.36
2022-09-03T11:43:26.497Z,18.41
2022-09-03T11:46:28.171Z,18.50
2022-09-03T11:49:09.746Z,18.55
2022-09-03T11:51:42.149Z,18.56
2022-09-03T11:54:16.334Z,18.56
2022-09-03T11:56:44.917Z,18.57
2022-09-03T11:59:13.650Z,18.57
2022-09-03T12:01:53.372Z,18.57
2022-09-03T12:04:31.658Z,18.59
2022-09-03T12:07:44.786Z,18.64
2022-09-03T12:10:27.912Z,18.63
2022-09-03T12:13:38.581Z,18.57
2022-09-03T12:16:07.841Z,18.53
2022-09-03T12:18:38.001Z,18.53
2022-09-03T12:21:09.265Z,18.52
2022-09-03T12:23:51.048Z,18.52
2022-09-03T12:26:27.757Z,18.52
2022-09-03T12:28:58.785Z,18.51
2022-09-03T12:31:30.335Z,18.52
2022-09-03T12:34:19.268Z,18.52
2022-09-03T12:36:53.996Z,18.51
2022-09-03T12:42:26.285Z,18.43
2022-09-03T12:44:55.279Z,18.38
2022-09-03T12:47:40.373Z,18.34
2022-09-03T12:50:16.633Z,18.31
2022-09-03T12:53:03.451Z,18.28
2022-09-03T12:55:54.228Z,18.27
2022-09-03T12:58:33.362Z,18.25
2022-09-03T13:01:14.880Z,18.26
2022-09-03T13:03:58.175Z,18.29
2022-09-03T13:06:41.656Z,18.34
2022-09-03T13:09:10.665Z,18.41
2022-09-03T13:11:39.491Z,18.45
2022-09-03T13:14:11.555Z,18.47
2022-09-03T13:16:45.800Z,18.51
2022-09-03T13:19:36.270Z,18.54
2022-09-03T13:22:19.392Z,18.57
2022-09-03T13:25:08.763Z,18.62
2022-09-03T13:28:08.170Z,18.70
2022-09-03T13:30:55.242Z,18.76
2022-09-03T13:33:38.410Z,18.78
2022-09-03T13:36:32.106Z,18.74
2022-09-03T13:39:06.605Z,18.71
2022-09-03T13:41:50.371Z,18.69
2022-09-03T13:44:24.993Z,18.66
2022-09-03T13:47:00.618Z,18.62
2022-09-03T13:50:02.997Z,18.58
2022-09-03T13:52:57.075Z,18.55
2022-09-03T13:55:44.137Z,18.52
2022-09-03T13:58:31.632Z,18.49
2022-09-03T14:00:59.764Z,18.46
2022-09-03T14:04:01.450Z,18.44
2022-09-03T14:06:45.297Z,18.41
2022-09-03T14:09:35.176Z,18.38
2022-09-03T14:12:14.079Z,18.36
2022-09-03T14:14:57.154Z,18.34
2022-09-03T14:17:49.668Z,18.33
2022-09-03T14:20:46.923Z,18.32
2022-09-03T14:23:36.192Z,18.31
2022-09-03T14:26:07.368Z,18.28
2022-09-03T14:28:38.580Z,18.27
2022-09-03T14:31:35.952Z,18.28
2022-09-03T14:34:07.082Z,18.27
2022-09-03T14:36:42.936Z,18.27
2022-09-03T14:39:26.852Z,18.29
2022-09-03T14:42:38.827Z,18.30
2022-09-03T14:45:20.163Z,18.31
2022-09-03T14:48:16.189Z,18.30
2022-09-03T14:51:13.683Z,18.29
2022-09-03T14:53:50.838Z,18.28
2022-09-03T14:56:58.844Z,18.25
2022-09-03T14:59:48.930Z,18.22
2022-09-03T15:02:30.284Z,18.19
2022-09-03T15:05:28.291Z,18.18
2022-09-03T15:08:01.784Z,18.15
2022-09-03T15:10:46.679Z,18.15
2022-09-03T15:13:42.985Z,18.14
2022-09-03T15:16:29.451Z,18.14
2022-09-03T15:19:23.672Z,18.14
2022-09-03T15:21:51.744Z,18.13
2022-09-03T15:24:43.674Z,18.13
2022-09-03T15:27:17.684Z,18.14
2022-09-03T15:29:51.700Z,18.13
2022-09-03T15:32:55.307Z,18.14
2022-09-03T15:35:38.629Z,18.15
2022-09-03T15:38:44.179Z,18.12
2022-09-03T15:41:46.350Z,18.10
2022-09-03T15:44:19.519Z,18.11
2022-09-03T15:46:54.584Z,18.09
2022-09-03T15:50:00.433Z,18.04
2022-09-03T15:52:46.016Z,18.00
2022-09-03T15:55:26.477Z,17.96
2022-09-03T15:58:08.892Z,17.95
2022-09-03T16:00:55.168Z,17.93
2022-09-03T16:03:33.547Z,17.92
2022-09-03T16:06:06.615Z,17.91
2022-09-03T16:08:44.281Z,17.90
2022-09-03T16:11:27.609Z,17.89
2022-09-03T16:14:09.864Z,17.88
2022-09-03T16:16:42.647Z,17.88
2022-09-03T16:19:22.382Z,17.86
2022-09-03T16:22:13.657Z,17.84
2022-09-03T16:25:01.696Z,17.84
2022-09-03T16:27:40.827Z,17.81
2022-09-03T16:30:12.104Z,17.77
2022-09-03T16:32:55.610Z,17.75
2022-09-03T16:35:58.495Z,17.73
2022-09-03T16:39:00.064Z,17.71
2022-09-03T16:41:45.428Z,17.69
2022-09-03T16:44:25.410Z,17.68
2022-09-03T16:47:15.672Z,17.65
2022-09-03T16:50:05.963Z,17.64
2022-09-03T16:53:06.828Z,17.61
2022-09-03T16:56:10.510Z,17.60
2022-09-03T16:58:53.224Z,17.55
2022-09-03T17:01:30.266Z,17.52
2022-09-03T17:04:27.562Z,17.52
2022-09-03T17:07:26.558Z,17.49
2022-09-03T17:10:00.467Z,17.45
2022-09-03T17:12:31.610Z,17.42
2022-09-03T17:15:08.591Z,17.39
2022-09-03T17:18:07.587Z,17.36
2022-09-03T17:21:10.017Z,17.34
2022-09-03T17:23:49.400Z,17.30
2022-09-03T17:26:20.239Z,17.24
2022-09-03T17:29:11.758Z,17.20
2022-09-03T17:32:12.189Z,17.15
2022-09-03T17:35:12.637Z,17.10
2022-09-03T17:37:40.690Z,17.03
2022-09-03T17:40:53.861Z,17.00
2022-09-03T17:43:34.691Z,16.95
2022-09-03T17:46:22.767Z,16.90
2022-09-03T17:48:53.770Z,16.85
2022-09-03T17:51:27.938Z,16.77
2022-09-03T17:54:00.357Z,16.70
2022-09-03T17:56:35.904Z,16.65
2022-09-03T17:59:31.623Z,16.62
2022-09-03T18:02:15.470Z,16.58
2022-09-03T18:05:28.084Z,16.52
2022-09-03T18:08:20.525Z,16.45
2022-09-03T18:11:02.112Z,16.42
2022-09-03T18:13:58.885Z,16.42
2022-09-03T18:16:30.352Z,16.44
2022-09-03T18:19:20.085Z,16.47
2022-09-03T18:22:08.841Z,16.44
2022-09-03T18:25:11.525Z,16.41
2022-09-03T18:28:18.919Z,16.39
2022-09-03T18:31:06.176Z,16.38
2022-09-03T18:33:53.257Z,16.36
2022-09-03T18:36:41.092Z,16.33
2022-09-03T18:39:44.435Z,16.30
2022-09-03T18:42:49.836Z,16.26
2022-09-03T18:46:14.823Z,16.21
2022-09-03T18:48:58.393Z,16.15
2022-09-03T18:52:04.848Z,16.09
2022-09-03T18:55:19.970Z,16.06
2022-09-03T18:58:15.948Z,16.02
2022-09-03T19:01:23.948Z,16.02
2022-09-03T19:04:55.414Z,16.04
2022-09-03T19:08:30.353Z,16.06
2022-09-03T19:11:41.642Z,16.13
2022-09-03T19:14:45.344Z,16.13
2022-09-03T19:17:59.956Z,16.13
2022-09-03T19:20:50.507Z,16.14
2022-09-03T19:23:37.214Z,16.14
2022-09-03T19:26:45.733Z,16.12
2022-09-03T19:29:57.324Z,16.07
2022-09-03T19:33:05.024Z,16.00
2022-09-03T19:36:04.943Z,15.88
2022-09-03T19:39:07.012Z,15.79
2022-09-03T19:42:04.370Z,15.77
2022-09-03T19:45:24.155Z,15.75
2022-09-03T19:48:11.885Z,15.73
2022-09-03T19:51:08.734Z,15.69
2022-09-03T19:53:55.747Z,15.66
2022-09-03T19:56:49.214Z,15.64
2022-09-03T19:59:39.406Z,15.64
2022-09-03T20:02:26.149Z,15.60
2022-09-03T20:05:18.555Z,15.51
2022-09-03T20:08:11.101Z,15.47
2022-09-03T20:10:42.144Z,15.47
2022-09-03T20:13:20.248Z,15.50
2022-09-03T20:15:51.520Z,15.51
2022-09-03T20:18:25.529Z,15.52
2022-09-03T20:21:32.021Z,15.52
2022-09-03T20:24:26.159Z,15.53
2022-09-03T20:27:03.038Z,15.52
2022-09-03T20:29:49.337Z,15.50
2022-09-03T20:32:40.858Z,15.49
2022-09-03T20:35:46.561Z,15.46
2022-09-03T20:38:43.765Z,15.44
2022-09-03T20:41:28.734Z,15.41
2022-09-03T20:44:25.198Z,15.39
2022-09-03T20:47:36.456Z,15.37
2022-09-03T20:50:43.950Z,15.34
2022-09-03T20:53:24.004Z,15.22
2022-09-03T20:55:57.603Z,15.21
2022-09-03T20:58:46.155Z,15.23
2022-09-03T21:01:31.066Z,15.26
2022-09-03T21:04:11.175Z,15.26
2022-09-03T21:07:03.720Z,15.26
2022-09-03T21:09:42.955Z,15.25
2022-09-03T21:12:29.669Z,15.24
2022-09-03T21:15:09.817Z,15.22
2022-09-03T21:18:19.528Z,15.21
2022-09-03T21:21:38.736Z,15.18
2022-09-03T21:24:34.250Z,15.07
2022-09-03T21:27:08.977Z,15.00
2022-09-03T21:29:39.915Z,14.98
2022-09-03T21:32:54.171Z,14.99
2022-09-03T21:35:33.198Z,14.99
2022-09-03T21:38:12.945Z,15.00
2022-09-03T21:40:52.687Z,15.00
2022-09-03T21:43:34.174Z,15.01
2022-09-03T21:46:09.255Z,15.01
2022-09-03T21:49:00.935Z,14.99
2022-09-03T21:51:41.703Z,14.96
2022-09-03T21:54:17.762Z,14.92
2022-09-03T21:57:20.525Z,14.86
2022-09-03T22:00:04.902Z,14.81
2022-09-03T22:02:41.261Z,14.78
2022-09-03T22:05:09.404Z,14.75
2022-09-03T22:08:09.256Z,14.67
2022-09-03T22:10:57.194Z,14.62
2022-09-03T22:14:02.950Z,14.57
2022-09-03T22:17:24.986Z,14.57
2022-09-03T22:19:53.466Z,14.51
2022-09-03T22:22:34.359Z,14.49
2022-09-03T22:25:09.477Z,14.48
2022-09-03T22:27:50.243Z,14.45
2022-09-03T22:30:23.028Z,14.41
2022-09-03T22:33:19.360Z,14.46
2022-09-03T22:35:56.339Z,14.44
2022-09-03T22:38:37.316Z,14.41
2022-09-03T22:41:14.499Z,14.39
2022-09-03T22:43:54.858Z,14.37
2022-09-03T22:46:27.793Z,14.36
2022-09-03T22:48:58.886Z,14.34
2022-09-03T22:51:37.815Z,14.31
2022-09-03T22:54:15.305Z,14.27
2022-09-03T22:56:44.298Z,14.27
2022-09-03T22:59:52.306Z,14.24
2022-09-03T23:02:24.779Z,14.25
2022-09-03T23:05:25.727Z,14.20
2022-09-03T23:08:14.562Z,14.16
2022-09-03T23:11:01.391Z,14.15
2022-09-03T23:13:42.267Z,14.12
2022-09-03T23:16:23.478Z,14.12
2022-09-03T23:18:53.049Z,14.14
2022-09-03T23:21:44.672Z,14.13
2022-09-03T23:24:35.273Z,14.06
2022-09-03T23:27:08.976Z,14.07
2022-09-03T23:29:46.364Z,14.14
2022-09-03T23:32:15.288Z,14.16
2022-09-03T23:34:43.774Z,14.16
2022-09-03T23:37:47.239Z,14.14
2022-09-03T23:40:28.315Z,14.12
2022-09-03T23:43:44.618Z,14.11
2022-09-03T23:46:40.850Z,14.11
2022-09-03T23:49:34.659Z,14.04
2022-09-03T23:52:21.536Z,13.96
2022-09-03T23:55:37.001Z,13.90
2022-09-03T23:58:11.646Z,13.92
